AWE258 KIAH-KIND
Flight info
| Callsign | AWE258 |
|---|---|
| Flight time | 1h 49m |
| Altitude | 23000 |
| Route | INDIE8 TPAKK LIT J131 PXV RACYR6 |
| Aircraft | A321/M-SDE3FGHIRWY/LB1 |
Departure
| Time | 2026-05-04 19:15 |
|---|---|
| Airport | George Bush Intercontinental Airport (KIAH) |
Arrival
| Time | 2026-05-04 21:04 |
|---|---|
| Airport | Indianapolis International Airport (KIND) |
| Time | Latitude | Longitude | Altitude | Speed | Heading |
|---|---|---|---|---|---|
| 2026-05-04 18:21 | 29.98529 | -95.35130 | 107 ft | 0 kts | 360° |
| 2026-05-04 19:03 | 29.98522 | -95.35130 | 122 ft | 4 kts | 360° |
| 2026-05-04 19:03 | 29.98498 | -95.35130 | 107 ft | 1 kts | 358° |
| 2026-05-04 19:03 | 29.98474 | -95.35129 | 106 ft | 4 kts | 0° |
| 2026-05-04 19:04 | 29.98454 | -95.35129 | 106 ft | 0 kts | 360° |
| 2026-05-04 19:06 | 29.98528 | -95.35130 | 107 ft | 0 kts | 360° |
| 2026-05-04 19:07 | 29.98466 | -95.35130 | 106 ft | 0 kts | 360° |
| 2026-05-04 19:10 | 29.98479 | -95.35140 | 107 ft | 8 kts | 307° |
| 2026-05-04 19:11 | 29.98487 | -95.35156 | 107 ft | 0 kts | 300° |
| 2026-05-04 19:12 | 29.98497 | -95.35186 | 107 ft | 14 kts | 287° |
| 2026-05-04 19:12 | 29.98561 | -95.35318 | 107 ft | 24 kts | 330° |
| 2026-05-04 19:13 | 29.98713 | -95.35410 | 107 ft | 24 kts | 335° |
| 2026-05-04 19:13 | 29.98849 | -95.35499 | 107 ft | 21 kts | 317° |
| 2026-05-04 19:13 | 29.98869 | -95.35573 | 107 ft | 2 kts | 249° |
| 2026-05-04 19:13 | 29.98842 | -95.35636 | 107 ft | 18 kts | 238° |
| 2026-05-04 19:14 | 29.98711 | -95.35740 | 108 ft | 33 kts | 159° |
| 2026-05-04 19:14 | 29.98462 | -95.35590 | 107 ft | 48 kts | 152° |
| 2026-05-04 19:14 | 29.97979 | -95.35290 | 108 ft | 112 kts | 152° |
| 2026-05-04 19:14 | 29.97116 | -95.34760 | 108 ft | 167 kts | 152° |
| 2026-05-04 19:15 | 29.96006 | -95.34062 | 404 ft | 192 kts | 153° |
| 2026-05-04 19:15 | 29.94891 | -95.33121 | 956 ft | 211 kts | 131° |
| 2026-05-04 19:15 | 29.94255 | -95.31512 | 1460 ft | 232 kts | 112° |
| 2026-05-04 19:15 | 29.93706 | -95.29694 | 2043 ft | 243 kts | 122° |
| 2026-05-04 19:16 | 29.92606 | -95.28313 | 2873 ft | 237 kts | 152° |
| 2026-05-04 19:16 | 29.91576 | -95.27840 | 3368 ft | 237 kts | 171° |
| 2026-05-04 19:16 | 29.89396 | -95.28221 | 3961 ft | 259 kts | 207° |
| 2026-05-04 19:16 | 29.88056 | -95.29660 | 4544 ft | 265 kts | 236° |
| 2026-05-04 19:17 | 29.87441 | -95.30861 | 5376 ft | 252 kts | 236° |
| 2026-05-04 19:17 | 29.86555 | -95.32576 | 6349 ft | 248 kts | 246° |
| 2026-05-04 19:17 | 29.86187 | -95.34508 | 7042 ft | 252 kts | 271° |
| 2026-05-04 19:17 | 29.86688 | -95.36452 | 7680 ft | 259 kts | 300° |
| 2026-05-04 19:18 | 29.87982 | -95.37920 | 8330 ft | 267 kts | 328° |
| 2026-05-04 19:18 | 29.89764 | -95.38565 | 8998 ft | 272 kts | 348° |
| 2026-05-04 19:18 | 29.91660 | -95.38745 | 9668 ft | 276 kts | 360° |
| 2026-05-04 19:18 | 29.93542 | -95.38234 | 10260 ft | 283 kts | 17° |
| 2026-05-04 19:19 | 29.95415 | -95.37386 | 10724 ft | 294 kts | 18° |
| 2026-05-04 19:19 | 29.97345 | -95.36485 | 11204 ft | 305 kts | 18° |
| 2026-05-04 19:19 | 29.99340 | -95.35541 | 11697 ft | 315 kts | 18° |
| 2026-05-04 19:19 | 30.01367 | -95.34584 | 12198 ft | 324 kts | 17° |
| 2026-05-04 19:20 | 30.03488 | -95.33585 | 12703 ft | 333 kts | 17° |
| 2026-05-04 19:20 | 30.05692 | -95.32547 | 13227 ft | 342 kts | 17° |
| 2026-05-04 19:20 | 30.07919 | -95.31499 | 13760 ft | 350 kts | 16° |
| 2026-05-04 19:20 | 30.10168 | -95.30443 | 14204 ft | 357 kts | 16° |
| 2026-05-04 19:21 | 30.12492 | -95.29351 | 14684 ft | 364 kts | 16° |
| 2026-05-04 19:21 | 30.14858 | -95.28237 | 15152 ft | 371 kts | 16° |
| 2026-05-04 19:21 | 30.17264 | -95.27106 | 15632 ft | 375 kts | 16° |
| 2026-05-04 19:21 | 30.19697 | -95.25963 | 16115 ft | 379 kts | 16° |
| 2026-05-04 19:22 | 30.22153 | -95.24808 | 16612 ft | 382 kts | 16° |
| 2026-05-04 19:22 | 30.24623 | -95.23644 | 17123 ft | 384 kts | 16° |
| 2026-05-04 19:22 | 30.27105 | -95.22476 | 17621 ft | 386 kts | 16° |
| 2026-05-04 19:22 | 30.29594 | -95.21304 | 18173 ft | 387 kts | 16° |
| 2026-05-04 19:23 | 30.32088 | -95.20126 | 18638 ft | 387 kts | 15° |
| 2026-05-04 19:23 | 30.34575 | -95.18948 | 19090 ft | 387 kts | 15° |
| 2026-05-04 19:23 | 30.37064 | -95.17768 | 19549 ft | 386 kts | 15° |
| 2026-05-04 19:23 | 30.39551 | -95.16592 | 20022 ft | 385 kts | 15° |
| 2026-05-04 19:24 | 30.42021 | -95.15426 | 20496 ft | 383 kts | 15° |
| 2026-05-04 19:24 | 30.44487 | -95.14262 | 20978 ft | 381 kts | 14° |
| 2026-05-04 19:24 | 30.46931 | -95.13106 | 21468 ft | 379 kts | 14° |
| 2026-05-04 19:24 | 30.49365 | -95.11953 | 21966 ft | 376 kts | 14° |
| 2026-05-04 19:25 | 30.51773 | -95.10811 | 22473 ft | 373 kts | 14° |
| 2026-05-04 19:25 | 30.54168 | -95.09676 | 22908 ft | 372 kts | 13° |
| 2026-05-04 19:25 | 30.56582 | -95.08540 | 23011 ft | 379 kts | 13° |
| 2026-05-04 19:25 | 30.59059 | -95.07353 | 23036 ft | 390 kts | 15° |
| 2026-05-04 19:26 | 30.61553 | -95.05976 | 23036 ft | 402 kts | 19° |
| 2026-05-04 19:26 | 30.64055 | -95.04430 | 23036 ft | 413 kts | 21° |
| 2026-05-04 19:26 | 30.66589 | -95.02762 | 23032 ft | 423 kts | 22° |
| 2026-05-04 19:26 | 30.69166 | -95.01029 | 23026 ft | 432 kts | 22° |
| 2026-05-04 19:27 | 30.71804 | -94.99255 | 23019 ft | 441 kts | 22° |
| 2026-05-04 19:27 | 30.74494 | -94.97470 | 23025 ft | 449 kts | 22° |
| 2026-05-04 19:27 | 30.77209 | -94.95697 | 23023 ft | 457 kts | 22° |
| 2026-05-04 19:27 | 30.80015 | -94.93886 | 23027 ft | 465 kts | 22° |
| 2026-05-04 19:28 | 30.82867 | -94.92057 | 23034 ft | 473 kts | 22° |
| 2026-05-04 19:28 | 30.85769 | -94.90196 | 23026 ft | 480 kts | 22° |
| 2026-05-04 19:28 | 30.88710 | -94.88307 | 23032 ft | 486 kts | 22° |
| 2026-05-04 19:28 | 30.91686 | -94.86387 | 23030 ft | 491 kts | 22° |
| 2026-05-04 19:29 | 30.94681 | -94.84447 | 23024 ft | 492 kts | 22° |
| 2026-05-04 19:29 | 30.97660 | -94.82507 | 23032 ft | 489 kts | 22° |
| 2026-05-04 19:29 | 31.00626 | -94.80572 | 23030 ft | 488 kts | 22° |
| 2026-05-04 19:29 | 31.03598 | -94.78635 | 23030 ft | 488 kts | 22° |
| 2026-05-04 19:30 | 31.06557 | -94.76709 | 23030 ft | 488 kts | 22° |
| 2026-05-04 19:30 | 31.06787 | -94.76560 | 23030 ft | 488 kts | 22° |
| 2026-05-04 19:31 | 31.08133 | -94.75686 | 23036 ft | 488 kts | 22° |
| 2026-05-04 19:31 | 31.11103 | -94.73761 | 23037 ft | 488 kts | 22° |
| 2026-05-04 19:31 | 31.14076 | -94.71835 | 23035 ft | 488 kts | 22° |
| 2026-05-04 19:31 | 31.17040 | -94.69911 | 23062 ft | 488 kts | 22° |
| 2026-05-04 19:32 | 31.20012 | -94.67976 | 23050 ft | 488 kts | 22° |
| 2026-05-04 19:32 | 31.22970 | -94.66046 | 23050 ft | 488 kts | 22° |
| 2026-05-04 19:32 | 31.25933 | -94.64112 | 23043 ft | 488 kts | 22° |
| 2026-05-04 19:32 | 31.28894 | -94.62176 | 23037 ft | 487 kts | 22° |
| 2026-05-04 19:33 | 31.31852 | -94.60241 | 23033 ft | 487 kts | 22° |
| 2026-05-04 19:33 | 31.34816 | -94.58301 | 23027 ft | 488 kts | 23° |
| 2026-05-04 19:33 | 31.37668 | -94.56111 | 23036 ft | 493 kts | 28° |
| 2026-05-04 19:33 | 31.40460 | -94.53768 | 23033 ft | 494 kts | 29° |
| 2026-05-04 19:34 | 31.43236 | -94.51389 | 23032 ft | 494 kts | 30° |
| 2026-05-04 19:34 | 31.45998 | -94.48983 | 23051 ft | 495 kts | 30° |
| 2026-05-04 19:34 | 31.48748 | -94.46564 | 23050 ft | 495 kts | 30° |
| 2026-05-04 19:34 | 31.51504 | -94.44129 | 23041 ft | 495 kts | 30° |
| 2026-05-04 19:35 | 31.54249 | -94.41701 | 23042 ft | 496 kts | 30° |
| 2026-05-04 19:35 | 31.56974 | -94.39295 | 23034 ft | 496 kts | 30° |
| 2026-05-04 19:35 | 31.59763 | -94.36837 | 23038 ft | 496 kts | 30° |
| 2026-05-04 19:35 | 31.62524 | -94.34412 | 23037 ft | 495 kts | 30° |
| 2026-05-04 19:36 | 31.65288 | -94.31989 | 23028 ft | 495 kts | 30° |
| 2026-05-04 19:36 | 31.68013 | -94.29600 | 23024 ft | 495 kts | 30° |
| 2026-05-04 19:36 | 31.70773 | -94.27177 | 23040 ft | 495 kts | 30° |
| 2026-05-04 19:36 | 31.73531 | -94.24748 | 23050 ft | 496 kts | 30° |
| 2026-05-04 19:37 | 31.76290 | -94.22313 | 23048 ft | 496 kts | 30° |
| 2026-05-04 19:37 | 31.79047 | -94.19873 | 23044 ft | 496 kts | 30° |
| 2026-05-04 19:37 | 31.81801 | -94.17429 | 23048 ft | 496 kts | 30° |
| 2026-05-04 19:37 | 31.84558 | -94.14985 | 23046 ft | 496 kts | 30° |
| 2026-05-04 19:38 | 31.87313 | -94.12543 | 23045 ft | 496 kts | 30° |
| 2026-05-04 19:38 | 31.90073 | -94.10103 | 23040 ft | 496 kts | 30° |
| 2026-05-04 19:38 | 31.92826 | -94.07670 | 23036 ft | 496 kts | 30° |
| 2026-05-04 19:38 | 31.95586 | -94.05232 | 23035 ft | 496 kts | 30° |
| 2026-05-04 19:39 | 31.98345 | -94.02791 | 23032 ft | 496 kts | 30° |
| 2026-05-04 19:39 | 32.01106 | -94.00343 | 23041 ft | 496 kts | 30° |
| 2026-05-04 19:39 | 32.03857 | -93.97899 | 23043 ft | 496 kts | 30° |
| 2026-05-04 19:39 | 32.06612 | -93.95444 | 23042 ft | 496 kts | 31° |
| 2026-05-04 19:40 | 32.09361 | -93.92987 | 23034 ft | 496 kts | 31° |
| 2026-05-04 19:40 | 32.12112 | -93.90531 | 23027 ft | 496 kts | 31° |
| 2026-05-04 19:40 | 32.14859 | -93.88078 | 23023 ft | 496 kts | 31° |
| 2026-05-04 19:40 | 32.17610 | -93.85623 | 23018 ft | 495 kts | 31° |
| 2026-05-04 19:41 | 32.20366 | -93.83165 | 23026 ft | 495 kts | 31° |
| 2026-05-04 19:41 | 32.23117 | -93.80712 | 23032 ft | 495 kts | 31° |
| 2026-05-04 19:41 | 32.25862 | -93.78264 | 23029 ft | 495 kts | 31° |
| 2026-05-04 19:41 | 32.28606 | -93.75811 | 23024 ft | 495 kts | 31° |
| 2026-05-04 19:42 | 32.31356 | -93.73351 | 23034 ft | 495 kts | 31° |
| 2026-05-04 19:42 | 32.34099 | -93.70894 | 23027 ft | 495 kts | 31° |
| 2026-05-04 19:42 | 32.36838 | -93.68435 | 23023 ft | 495 kts | 31° |
| 2026-05-04 19:42 | 32.39582 | -93.65968 | 23018 ft | 495 kts | 31° |
| 2026-05-04 19:43 | 32.42324 | -93.63500 | 23019 ft | 494 kts | 31° |
| 2026-05-04 19:43 | 32.45057 | -93.61038 | 23014 ft | 494 kts | 31° |
| 2026-05-04 19:43 | 32.47793 | -93.58573 | 23010 ft | 494 kts | 31° |
| 2026-05-04 19:43 | 32.50533 | -93.56105 | 23010 ft | 494 kts | 31° |
| 2026-05-04 19:44 | 32.53262 | -93.53635 | 23007 ft | 495 kts | 31° |
| 2026-05-04 19:44 | 32.55961 | -93.51096 | 23006 ft | 496 kts | 33° |
| 2026-05-04 19:44 | 32.58629 | -93.48493 | 23040 ft | 497 kts | 34° |
| 2026-05-04 19:44 | 32.61272 | -93.45854 | 23032 ft | 497 kts | 34° |
| 2026-05-04 19:45 | 32.63910 | -93.43199 | 23026 ft | 497 kts | 34° |
| 2026-05-04 19:45 | 32.66553 | -93.40551 | 23026 ft | 497 kts | 34° |
| 2026-05-04 19:45 | 32.69207 | -93.37917 | 23025 ft | 497 kts | 33° |
| 2026-05-04 19:45 | 32.71864 | -93.35300 | 23025 ft | 497 kts | 33° |
| 2026-05-04 19:46 | 32.74529 | -93.32689 | 23024 ft | 497 kts | 33° |
| 2026-05-04 19:46 | 32.77165 | -93.30105 | 23013 ft | 497 kts | 33° |
| 2026-05-04 19:46 | 32.79830 | -93.27486 | 23010 ft | 497 kts | 33° |
| 2026-05-04 19:46 | 32.82494 | -93.24858 | 23008 ft | 497 kts | 33° |
| 2026-05-04 19:47 | 32.85155 | -93.22228 | 23030 ft | 497 kts | 34° |
| 2026-05-04 19:47 | 32.87810 | -93.19604 | 23024 ft | 497 kts | 34° |
| 2026-05-04 19:47 | 32.90471 | -93.16973 | 23011 ft | 497 kts | 34° |
| 2026-05-04 19:47 | 32.93171 | -93.14301 | 23005 ft | 497 kts | 34° |
| 2026-05-04 19:48 | 32.95830 | -93.11670 | 22999 ft | 497 kts | 34° |
| 2026-05-04 19:48 | 32.98491 | -93.09034 | 22996 ft | 498 kts | 34° |
| 2026-05-04 19:48 | 33.01111 | -93.06436 | 22996 ft | 498 kts | 34° |
| 2026-05-04 19:48 | 33.03770 | -93.03794 | 23007 ft | 498 kts | 34° |
| 2026-05-04 19:49 | 33.06429 | -93.01148 | 23007 ft | 498 kts | 34° |
| 2026-05-04 19:49 | 33.09087 | -92.98503 | 23009 ft | 498 kts | 34° |
| 2026-05-04 19:49 | 33.11744 | -92.95854 | 23011 ft | 498 kts | 34° |
| 2026-05-04 19:49 | 33.14407 | -92.93197 | 23032 ft | 498 kts | 34° |
| 2026-05-04 19:50 | 33.17056 | -92.90553 | 23027 ft | 497 kts | 34° |
| 2026-05-04 19:50 | 33.19712 | -92.87905 | 23025 ft | 497 kts | 34° |
| 2026-05-04 19:50 | 33.22366 | -92.85256 | 23022 ft | 497 kts | 34° |
| 2026-05-04 19:50 | 33.25016 | -92.82604 | 23014 ft | 497 kts | 34° |
| 2026-05-04 19:51 | 33.27665 | -92.79951 | 23025 ft | 497 kts | 34° |
| 2026-05-04 19:51 | 33.30314 | -92.77301 | 23027 ft | 496 kts | 34° |
| 2026-05-04 19:51 | 33.32962 | -92.74650 | 23019 ft | 496 kts | 34° |
| 2026-05-04 19:51 | 33.35609 | -92.71999 | 23033 ft | 496 kts | 34° |
| 2026-05-04 19:52 | 33.38250 | -92.69350 | 23012 ft | 496 kts | 34° |
| 2026-05-04 19:52 | 33.40903 | -92.66686 | 23026 ft | 496 kts | 34° |
| 2026-05-04 19:52 | 33.43542 | -92.64033 | 22995 ft | 496 kts | 34° |
| 2026-05-04 19:52 | 33.46184 | -92.61374 | 22998 ft | 496 kts | 34° |
| 2026-05-04 19:53 | 33.48829 | -92.58711 | 23004 ft | 496 kts | 34° |
| 2026-05-04 19:53 | 33.51472 | -92.56050 | 22991 ft | 496 kts | 34° |
| 2026-05-04 19:53 | 33.54114 | -92.53386 | 22992 ft | 496 kts | 34° |
| 2026-05-04 19:53 | 33.56761 | -92.50713 | 22981 ft | 496 kts | 34° |
| 2026-05-04 19:54 | 33.59397 | -92.48047 | 22995 ft | 496 kts | 34° |
| 2026-05-04 19:54 | 33.62038 | -92.45376 | 22985 ft | 496 kts | 34° |
| 2026-05-04 19:54 | 33.64677 | -92.42704 | 22987 ft | 496 kts | 34° |
| 2026-05-04 19:54 | 33.67317 | -92.40031 | 23013 ft | 496 kts | 34° |
| 2026-05-04 19:55 | 33.69959 | -92.37355 | 23019 ft | 496 kts | 34° |
| 2026-05-04 19:55 | 33.72560 | -92.34717 | 23017 ft | 496 kts | 34° |
| 2026-05-04 19:55 | 33.75193 | -92.32044 | 23010 ft | 495 kts | 34° |
| 2026-05-04 19:55 | 33.77855 | -92.29339 | 22998 ft | 495 kts | 34° |
| 2026-05-04 19:56 | 33.80451 | -92.26700 | 23017 ft | 495 kts | 34° |
| 2026-05-04 19:56 | 33.83112 | -92.23992 | 23005 ft | 495 kts | 34° |
| 2026-05-04 19:56 | 33.85706 | -92.21350 | 23007 ft | 495 kts | 34° |
| 2026-05-04 19:56 | 33.88333 | -92.18669 | 22996 ft | 495 kts | 34° |
| 2026-05-04 19:57 | 33.90956 | -92.15985 | 23000 ft | 495 kts | 34° |
| 2026-05-04 19:57 | 33.93578 | -92.13300 | 23023 ft | 495 kts | 34° |
| 2026-05-04 19:57 | 33.95318 | -92.11518 | 23021 ft | 494 kts | 34° |
| 2026-05-04 19:57 | 33.98824 | -92.07929 | 23019 ft | 494 kts | 34° |
| 2026-05-04 19:58 | 34.00561 | -92.06154 | 23017 ft | 493 kts | 34° |
| 2026-05-04 19:58 | 34.04039 | -92.02601 | 23018 ft | 493 kts | 34° |
| 2026-05-04 19:58 | 34.05801 | -92.00796 | 23020 ft | 493 kts | 34° |
| 2026-05-04 19:58 | 34.08421 | -91.98109 | 23020 ft | 493 kts | 34° |
| 2026-05-04 19:59 | 34.11027 | -91.95435 | 23018 ft | 493 kts | 34° |
| 2026-05-04 19:59 | 34.13638 | -91.92754 | 23018 ft | 493 kts | 34° |
| 2026-05-04 19:59 | 34.16243 | -91.90073 | 23025 ft | 493 kts | 35° |
| 2026-05-04 19:59 | 34.18854 | -91.87381 | 22987 ft | 493 kts | 35° |
| 2026-05-04 20:00 | 34.21457 | -91.84698 | 23000 ft | 493 kts | 35° |
| 2026-05-04 20:00 | 34.24067 | -91.82007 | 23003 ft | 493 kts | 35° |
| 2026-05-04 20:00 | 34.27517 | -91.78445 | 22998 ft | 492 kts | 35° |
| 2026-05-04 20:00 | 34.29279 | -91.76624 | 22997 ft | 492 kts | 35° |
| 2026-05-04 20:01 | 34.31878 | -91.73936 | 22985 ft | 492 kts | 35° |
| 2026-05-04 20:01 | 34.34485 | -91.71242 | 22983 ft | 492 kts | 35° |
| 2026-05-04 20:01 | 34.37089 | -91.68550 | 22972 ft | 492 kts | 35° |
| 2026-05-04 20:01 | 34.39656 | -91.65890 | 22987 ft | 492 kts | 35° |
| 2026-05-04 20:02 | 34.42257 | -91.63185 | 22975 ft | 492 kts | 36° |
| 2026-05-04 20:02 | 34.44847 | -91.60487 | 22980 ft | 492 kts | 36° |
| 2026-05-04 20:02 | 34.47448 | -91.57781 | 23010 ft | 492 kts | 36° |
| 2026-05-04 20:02 | 34.50041 | -91.55082 | 23013 ft | 492 kts | 36° |
| 2026-05-04 20:03 | 34.52639 | -91.52376 | 23021 ft | 492 kts | 36° |
| 2026-05-04 20:03 | 34.55238 | -91.49669 | 23017 ft | 492 kts | 36° |
| 2026-05-04 20:03 | 34.57836 | -91.46961 | 23012 ft | 492 kts | 36° |
| 2026-05-04 20:03 | 34.60426 | -91.44258 | 23008 ft | 492 kts | 36° |
| 2026-05-04 20:04 | 34.63022 | -91.41546 | 23003 ft | 492 kts | 36° |
| 2026-05-04 20:04 | 34.65622 | -91.38830 | 22997 ft | 492 kts | 36° |
| 2026-05-04 20:04 | 34.68215 | -91.36117 | 22992 ft | 492 kts | 36° |
| 2026-05-04 20:04 | 34.70804 | -91.33405 | 22989 ft | 492 kts | 36° |
| 2026-05-04 20:05 | 34.73398 | -91.30687 | 23001 ft | 492 kts | 36° |
| 2026-05-04 20:05 | 34.75989 | -91.27970 | 22994 ft | 492 kts | 36° |
| 2026-05-04 20:05 | 34.78575 | -91.25258 | 22985 ft | 491 kts | 36° |
| 2026-05-04 20:05 | 34.81169 | -91.22534 | 22980 ft | 491 kts | 36° |
| 2026-05-04 20:06 | 34.83751 | -91.19816 | 22968 ft | 491 kts | 36° |
| 2026-05-04 20:06 | 34.86334 | -91.17089 | 22967 ft | 491 kts | 36° |
| 2026-05-04 20:06 | 34.88917 | -91.14363 | 22976 ft | 491 kts | 36° |
| 2026-05-04 20:06 | 34.91506 | -91.11637 | 22972 ft | 491 kts | 36° |
| 2026-05-04 20:07 | 34.94087 | -91.08921 | 22970 ft | 491 kts | 36° |
| 2026-05-04 20:07 | 34.96673 | -91.06198 | 22969 ft | 491 kts | 36° |
| 2026-05-04 20:07 | 34.99257 | -91.03472 | 22971 ft | 491 kts | 37° |
| 2026-05-04 20:07 | 35.01838 | -91.00740 | 22968 ft | 491 kts | 37° |
| 2026-05-04 20:08 | 35.04418 | -90.98004 | 22967 ft | 491 kts | 37° |
| 2026-05-04 20:08 | 35.06995 | -90.95268 | 22964 ft | 491 kts | 37° |
| 2026-05-04 20:08 | 35.09567 | -90.92531 | 22951 ft | 491 kts | 37° |
| 2026-05-04 20:08 | 35.12143 | -90.89789 | 22949 ft | 491 kts | 37° |
| 2026-05-04 20:09 | 35.14721 | -90.87046 | 22947 ft | 491 kts | 37° |
| 2026-05-04 20:09 | 35.17297 | -90.84307 | 22950 ft | 491 kts | 37° |
| 2026-05-04 20:09 | 35.19868 | -90.81569 | 22948 ft | 491 kts | 37° |
| 2026-05-04 20:09 | 35.22443 | -90.78823 | 22950 ft | 491 kts | 37° |
| 2026-05-04 20:10 | 35.25022 | -90.76073 | 22966 ft | 491 kts | 37° |
| 2026-05-04 20:10 | 35.27600 | -90.73326 | 22954 ft | 491 kts | 37° |
| 2026-05-04 20:10 | 35.30174 | -90.70581 | 22946 ft | 492 kts | 37° |
| 2026-05-04 20:10 | 35.32753 | -90.67825 | 22943 ft | 492 kts | 37° |
| 2026-05-04 20:11 | 35.35332 | -90.65068 | 22942 ft | 492 kts | 37° |
| 2026-05-04 20:11 | 35.37874 | -90.62344 | 22940 ft | 492 kts | 37° |
| 2026-05-04 20:11 | 35.40481 | -90.59549 | 22932 ft | 492 kts | 37° |
| 2026-05-04 20:11 | 35.43023 | -90.56822 | 22932 ft | 492 kts | 37° |
| 2026-05-04 20:12 | 35.45599 | -90.54055 | 22929 ft | 492 kts | 37° |
| 2026-05-04 20:12 | 35.48174 | -90.51287 | 22928 ft | 492 kts | 37° |
| 2026-05-04 20:12 | 35.50748 | -90.48514 | 22946 ft | 492 kts | 37° |
| 2026-05-04 20:12 | 35.53328 | -90.45735 | 22938 ft | 492 kts | 37° |
| 2026-05-04 20:13 | 35.55902 | -90.42961 | 22933 ft | 492 kts | 37° |
| 2026-05-04 20:13 | 35.58474 | -90.40185 | 22930 ft | 492 kts | 37° |
| 2026-05-04 20:13 | 35.61048 | -90.37402 | 22930 ft | 492 kts | 37° |
| 2026-05-04 20:13 | 35.63617 | -90.34624 | 22925 ft | 493 kts | 37° |
| 2026-05-04 20:14 | 35.66189 | -90.31840 | 22923 ft | 493 kts | 37° |
| 2026-05-04 20:14 | 35.68762 | -90.29052 | 22919 ft | 493 kts | 37° |
| 2026-05-04 20:14 | 35.71334 | -90.26259 | 22919 ft | 493 kts | 38° |
| 2026-05-04 20:14 | 35.73905 | -90.23468 | 22918 ft | 493 kts | 37° |
| 2026-05-04 20:15 | 35.76479 | -90.20673 | 22928 ft | 493 kts | 37° |
| 2026-05-04 20:15 | 35.79055 | -90.17878 | 22927 ft | 493 kts | 37° |
| 2026-05-04 20:15 | 35.81630 | -90.15082 | 22926 ft | 493 kts | 37° |
| 2026-05-04 20:15 | 35.84200 | -90.12290 | 22923 ft | 493 kts | 37° |
| 2026-05-04 20:16 | 35.86775 | -90.09486 | 22922 ft | 493 kts | 38° |
| 2026-05-04 20:16 | 35.89348 | -90.06680 | 22918 ft | 493 kts | 38° |
| 2026-05-04 20:16 | 35.91915 | -90.03878 | 22916 ft | 493 kts | 38° |
| 2026-05-04 20:16 | 35.94453 | -90.01107 | 22914 ft | 493 kts | 38° |
| 2026-05-04 20:17 | 35.97023 | -89.98298 | 22924 ft | 493 kts | 38° |
| 2026-05-04 20:17 | 35.99592 | -89.95487 | 22921 ft | 494 kts | 38° |
| 2026-05-04 20:17 | 36.02165 | -89.92672 | 22921 ft | 494 kts | 38° |
| 2026-05-04 20:17 | 36.04730 | -89.89859 | 22914 ft | 494 kts | 38° |
| 2026-05-04 20:18 | 36.07303 | -89.87034 | 22910 ft | 494 kts | 38° |
| 2026-05-04 20:18 | 36.09868 | -89.84213 | 22909 ft | 494 kts | 38° |
| 2026-05-04 20:18 | 36.12440 | -89.81381 | 22907 ft | 495 kts | 38° |
| 2026-05-04 20:18 | 36.15007 | -89.78552 | 22913 ft | 495 kts | 38° |
| 2026-05-04 20:19 | 36.17580 | -89.75720 | 22909 ft | 495 kts | 38° |
| 2026-05-04 20:19 | 36.20154 | -89.72889 | 22911 ft | 495 kts | 38° |
| 2026-05-04 20:19 | 36.22722 | -89.70057 | 22903 ft | 495 kts | 38° |
| 2026-05-04 20:19 | 36.25288 | -89.67217 | 22920 ft | 495 kts | 38° |
| 2026-05-04 20:20 | 36.27857 | -89.64368 | 22908 ft | 495 kts | 38° |
| 2026-05-04 20:20 | 36.30429 | -89.61522 | 22905 ft | 495 kts | 38° |
| 2026-05-04 20:20 | 36.33003 | -89.58677 | 22908 ft | 495 kts | 38° |
| 2026-05-04 20:20 | 36.35572 | -89.55832 | 22899 ft | 496 kts | 38° |
| 2026-05-04 20:21 | 36.38146 | -89.52975 | 22906 ft | 496 kts | 38° |
| 2026-05-04 20:21 | 36.40710 | -89.50123 | 22907 ft | 496 kts | 38° |
| 2026-05-04 20:21 | 36.45847 | -89.44402 | 22902 ft | 496 kts | 38° |
| 2026-05-04 20:22 | 36.48417 | -89.41539 | 22893 ft | 496 kts | 38° |
| 2026-05-04 20:22 | 36.50980 | -89.38679 | 22910 ft | 496 kts | 38° |
| 2026-05-04 20:22 | 36.53552 | -89.35808 | 22892 ft | 497 kts | 38° |
| 2026-05-04 20:22 | 36.56132 | -89.32933 | 22885 ft | 497 kts | 38° |
| 2026-05-04 20:23 | 36.58704 | -89.30068 | 22883 ft | 497 kts | 38° |
| 2026-05-04 20:23 | 36.61282 | -89.27193 | 22885 ft | 498 kts | 38° |
| 2026-05-04 20:23 | 36.63862 | -89.24309 | 22883 ft | 498 kts | 38° |
| 2026-05-04 20:23 | 36.66435 | -89.21426 | 22880 ft | 498 kts | 38° |
| 2026-05-04 20:24 | 36.69013 | -89.18530 | 22883 ft | 498 kts | 38° |
| 2026-05-04 20:24 | 36.71583 | -89.15639 | 22887 ft | 498 kts | 38° |
| 2026-05-04 20:24 | 36.74156 | -89.12741 | 22886 ft | 499 kts | 38° |
| 2026-05-04 20:24 | 36.76732 | -89.09842 | 22895 ft | 499 kts | 38° |
| 2026-05-04 20:25 | 36.79313 | -89.06937 | 22886 ft | 500 kts | 38° |
| 2026-05-04 20:25 | 36.81895 | -89.04024 | 22883 ft | 500 kts | 38° |
| 2026-05-04 20:25 | 36.84474 | -89.01111 | 22874 ft | 500 kts | 38° |
| 2026-05-04 20:25 | 36.87055 | -88.98193 | 22874 ft | 500 kts | 38° |
| 2026-05-04 20:26 | 36.89602 | -88.95314 | 22871 ft | 500 kts | 38° |
| 2026-05-04 20:26 | 36.92214 | -88.92362 | 22874 ft | 501 kts | 38° |
| 2026-05-04 20:26 | 36.94796 | -88.89439 | 22873 ft | 501 kts | 38° |
| 2026-05-04 20:26 | 36.97379 | -88.86509 | 22874 ft | 501 kts | 38° |
| 2026-05-04 20:27 | 36.99961 | -88.83577 | 22896 ft | 501 kts | 38° |
| 2026-05-04 20:27 | 37.02543 | -88.80642 | 22887 ft | 502 kts | 38° |
| 2026-05-04 20:27 | 37.05128 | -88.77705 | 22883 ft | 502 kts | 38° |
| 2026-05-04 20:27 | 37.07711 | -88.74767 | 22880 ft | 502 kts | 38° |
| 2026-05-04 20:28 | 37.10295 | -88.71823 | 22879 ft | 502 kts | 38° |
| 2026-05-04 20:28 | 37.12873 | -88.68883 | 22879 ft | 502 kts | 38° |
| 2026-05-04 20:28 | 37.15455 | -88.65934 | 22879 ft | 502 kts | 39° |
| 2026-05-04 20:28 | 37.18038 | -88.62983 | 22879 ft | 502 kts | 38° |
| 2026-05-04 20:29 | 37.20622 | -88.60029 | 22879 ft | 502 kts | 39° |
| 2026-05-04 20:29 | 37.23202 | -88.57077 | 22890 ft | 502 kts | 39° |
| 2026-05-04 20:29 | 37.25783 | -88.54119 | 22888 ft | 502 kts | 39° |
| 2026-05-04 20:29 | 37.28333 | -88.51197 | 22884 ft | 502 kts | 39° |
| 2026-05-04 20:30 | 37.30940 | -88.48203 | 22882 ft | 502 kts | 39° |
| 2026-05-04 20:30 | 37.33483 | -88.45273 | 22882 ft | 502 kts | 39° |
| 2026-05-04 20:30 | 37.36060 | -88.42301 | 22880 ft | 502 kts | 39° |
| 2026-05-04 20:30 | 37.38630 | -88.39337 | 22878 ft | 502 kts | 39° |
| 2026-05-04 20:31 | 37.41209 | -88.36366 | 22877 ft | 501 kts | 39° |
| 2026-05-04 20:31 | 37.43778 | -88.33403 | 22874 ft | 501 kts | 39° |
| 2026-05-04 20:31 | 37.46351 | -88.30432 | 22876 ft | 501 kts | 39° |
| 2026-05-04 20:31 | 37.48920 | -88.27461 | 22894 ft | 501 kts | 39° |
| 2026-05-04 20:32 | 37.51488 | -88.24489 | 22886 ft | 501 kts | 39° |
| 2026-05-04 20:32 | 37.54054 | -88.21522 | 22884 ft | 500 kts | 39° |
| 2026-05-04 20:32 | 37.56615 | -88.18560 | 22879 ft | 500 kts | 39° |
| 2026-05-04 20:32 | 37.59175 | -88.15594 | 22882 ft | 500 kts | 39° |
| 2026-05-04 20:33 | 37.61731 | -88.12626 | 22879 ft | 500 kts | 39° |
| 2026-05-04 20:33 | 37.64282 | -88.09653 | 22888 ft | 500 kts | 39° |
| 2026-05-04 20:33 | 37.66842 | -88.06667 | 22882 ft | 500 kts | 39° |
| 2026-05-04 20:33 | 37.69397 | -88.03687 | 22875 ft | 500 kts | 39° |
| 2026-05-04 20:34 | 37.71948 | -88.00712 | 22894 ft | 500 kts | 39° |
| 2026-05-04 20:34 | 37.74508 | -87.97723 | 22891 ft | 499 kts | 39° |
| 2026-05-04 20:34 | 37.77055 | -87.94742 | 22890 ft | 499 kts | 39° |
| 2026-05-04 20:34 | 37.79593 | -87.91764 | 22891 ft | 499 kts | 39° |
| 2026-05-04 20:35 | 37.82142 | -87.88778 | 22891 ft | 498 kts | 39° |
| 2026-05-04 20:35 | 37.84648 | -87.85841 | 22890 ft | 498 kts | 39° |
| 2026-05-04 20:35 | 37.87225 | -87.82822 | 22890 ft | 498 kts | 39° |
| 2026-05-04 20:35 | 37.89735 | -87.79879 | 22888 ft | 498 kts | 39° |
| 2026-05-04 20:36 | 37.92302 | -87.76941 | 22883 ft | 496 kts | 34° |
| 2026-05-04 20:36 | 37.95195 | -87.74532 | 22888 ft | 489 kts | 25° |
| 2026-05-04 20:36 | 37.98129 | -87.72451 | 22881 ft | 488 kts | 25° |
| 2026-05-04 20:36 | 38.01065 | -87.70351 | 22717 ft | 471 kts | 25° |
| 2026-05-04 20:37 | 38.03851 | -87.68346 | 22266 ft | 461 kts | 25° |
| 2026-05-04 20:37 | 38.06642 | -87.66327 | 21812 ft | 451 kts | 25° |
| 2026-05-04 20:37 | 38.09308 | -87.64393 | 21369 ft | 442 kts | 25° |
| 2026-05-04 20:37 | 38.11953 | -87.62479 | 20931 ft | 433 kts | 25° |
| 2026-05-04 20:38 | 38.14548 | -87.60608 | 20505 ft | 425 kts | 25° |
| 2026-05-04 20:38 | 38.17095 | -87.58770 | 20095 ft | 416 kts | 25° |
| 2026-05-04 20:38 | 38.19581 | -87.56974 | 19677 ft | 408 kts | 25° |
| 2026-05-04 20:38 | 38.22025 | -87.55203 | 19217 ft | 402 kts | 25° |
| 2026-05-04 20:39 | 38.24444 | -87.53449 | 18767 ft | 397 kts | 25° |
| 2026-05-04 20:39 | 38.26826 | -87.51721 | 18360 ft | 392 kts | 25° |
| 2026-05-04 20:39 | 38.29178 | -87.50016 | 17935 ft | 387 kts | 25° |
| 2026-05-04 20:39 | 38.31509 | -87.48330 | 17475 ft | 383 kts | 25° |
| 2026-05-04 20:40 | 38.33072 | -87.47199 | 17166 ft | 381 kts | 25° |
| 2026-05-04 20:40 | 38.35373 | -87.45531 | 16713 ft | 380 kts | 25° |
| 2026-05-04 20:40 | 38.37666 | -87.43867 | 16275 ft | 378 kts | 25° |
| 2026-05-04 20:40 | 38.39944 | -87.42210 | 15847 ft | 377 kts | 25° |
| 2026-05-04 20:41 | 38.42215 | -87.40555 | 15421 ft | 375 kts | 25° |
| 2026-05-04 20:41 | 38.44483 | -87.38902 | 15000 ft | 374 kts | 25° |
| 2026-05-04 20:41 | 38.46734 | -87.37262 | 14589 ft | 373 kts | 25° |
| 2026-05-04 20:41 | 38.48989 | -87.35620 | 14179 ft | 372 kts | 25° |
| 2026-05-04 20:42 | 38.51232 | -87.33983 | 13775 ft | 371 kts | 25° |
| 2026-05-04 20:42 | 38.53466 | -87.32350 | 13343 ft | 370 kts | 25° |
| 2026-05-04 20:42 | 38.55691 | -87.30719 | 12891 ft | 369 kts | 25° |
| 2026-05-04 20:42 | 38.57918 | -87.29084 | 12455 ft | 368 kts | 25° |
| 2026-05-04 20:43 | 38.60131 | -87.27460 | 12033 ft | 366 kts | 25° |
| 2026-05-04 20:43 | 38.62329 | -87.25852 | 11601 ft | 360 kts | 25° |
| 2026-05-04 20:43 | 38.64470 | -87.24283 | 11183 ft | 349 kts | 25° |
| 2026-05-04 20:43 | 38.66549 | -87.22755 | 10765 ft | 339 kts | 25° |
| 2026-05-04 20:44 | 38.68593 | -87.21254 | 10368 ft | 346 kts | 25° |
| 2026-05-04 20:44 | 38.70706 | -87.19711 | 10504 ft | 353 kts | 25° |
| 2026-05-04 20:44 | 38.72868 | -87.18131 | 10780 ft | 361 kts | 25° |
| 2026-05-04 20:44 | 38.75056 | -87.16525 | 10857 ft | 363 kts | 25° |
| 2026-05-04 20:45 | 38.77248 | -87.14909 | 10878 ft | 363 kts | 25° |
| 2026-05-04 20:45 | 38.79431 | -87.13294 | 10869 ft | 363 kts | 26° |
| 2026-05-04 20:45 | 38.81625 | -87.11671 | 10861 ft | 362 kts | 26° |
| 2026-05-04 20:45 | 38.83812 | -87.10052 | 10866 ft | 363 kts | 25° |
| 2026-05-04 20:46 | 38.85968 | -87.08457 | 10880 ft | 363 kts | 25° |
| 2026-05-04 20:46 | 38.88152 | -87.06841 | 10854 ft | 362 kts | 25° |
| 2026-05-04 20:46 | 38.90336 | -87.05225 | 10847 ft | 363 kts | 25° |
| 2026-05-04 20:46 | 38.92522 | -87.03608 | 10838 ft | 363 kts | 25° |
| 2026-05-04 20:47 | 38.94694 | -87.01999 | 10503 ft | 355 kts | 25° |
| 2026-05-04 20:47 | 38.96791 | -87.00438 | 10134 ft | 342 kts | 25° |
| 2026-05-04 20:47 | 38.98805 | -86.98935 | 9852 ft | 326 kts | 25° |
| 2026-05-04 20:47 | 39.00762 | -86.97478 | 9806 ft | 325 kts | 25° |
| 2026-05-04 20:48 | 39.02724 | -86.96027 | 9813 ft | 326 kts | 25° |
| 2026-05-04 20:48 | 39.04685 | -86.94576 | 9808 ft | 325 kts | 25° |
| 2026-05-04 20:48 | 39.06649 | -86.93122 | 9817 ft | 327 kts | 25° |
| 2026-05-04 20:48 | 39.08631 | -86.91654 | 9833 ft | 329 kts | 25° |
| 2026-05-04 20:49 | 39.10613 | -86.90182 | 9820 ft | 329 kts | 25° |
| 2026-05-04 20:49 | 39.12600 | -86.88699 | 9697 ft | 331 kts | 25° |
| 2026-05-04 20:49 | 39.14581 | -86.87220 | 9296 ft | 327 kts | 26° |
| 2026-05-04 20:49 | 39.16545 | -86.85754 | 8910 ft | 325 kts | 26° |
| 2026-05-04 20:50 | 39.18493 | -86.84299 | 8525 ft | 323 kts | 26° |
| 2026-05-04 20:50 | 39.20427 | -86.82854 | 8145 ft | 320 kts | 26° |
| 2026-05-04 20:50 | 39.22344 | -86.81421 | 7770 ft | 318 kts | 27° |
| 2026-05-04 20:50 | 39.24254 | -86.79992 | 7395 ft | 316 kts | 27° |
| 2026-05-04 20:51 | 39.26151 | -86.78573 | 7028 ft | 314 kts | 27° |
| 2026-05-04 20:51 | 39.28038 | -86.77161 | 6657 ft | 312 kts | 27° |
| 2026-05-04 20:51 | 39.29913 | -86.75759 | 6301 ft | 310 kts | 27° |
| 2026-05-04 20:51 | 39.31775 | -86.74364 | 5953 ft | 309 kts | 27° |
| 2026-05-04 20:52 | 39.33635 | -86.72969 | 5576 ft | 309 kts | 28° |
| 2026-05-04 20:52 | 39.35490 | -86.71574 | 5190 ft | 307 kts | 29° |
| 2026-05-04 20:52 | 39.37329 | -86.70192 | 4857 ft | 304 kts | 29° |
| 2026-05-04 20:52 | 39.39167 | -86.68811 | 4557 ft | 305 kts | 29° |
| 2026-05-04 20:53 | 39.40991 | -86.67439 | 4157 ft | 301 kts | 30° |
| 2026-05-04 20:53 | 39.42778 | -86.66091 | 3753 ft | 294 kts | 30° |
| 2026-05-04 20:53 | 39.44511 | -86.64782 | 3364 ft | 292 kts | 30° |
| 2026-05-04 20:53 | 39.46280 | -86.63447 | 2972 ft | 295 kts | 30° |
| 2026-05-04 20:54 | 39.48046 | -86.62114 | 2786 ft | 293 kts | 31° |
| 2026-05-04 20:54 | 39.49752 | -86.60826 | 2783 ft | 273 kts | 31° |
| 2026-05-04 20:54 | 39.51369 | -86.59606 | 2789 ft | 265 kts | 30° |
| 2026-05-04 20:54 | 39.52955 | -86.58408 | 2797 ft | 264 kts | 31° |
| 2026-05-04 20:55 | 39.54556 | -86.57197 | 2801 ft | 276 kts | 30° |
| 2026-05-04 20:55 | 39.56271 | -86.55902 | 2785 ft | 291 kts | 30° |
| 2026-05-04 20:55 | 39.58022 | -86.54580 | 2789 ft | 292 kts | 29° |
| 2026-05-04 20:55 | 39.59785 | -86.53248 | 2817 ft | 294 kts | 29° |
| 2026-05-04 20:56 | 39.61538 | -86.51918 | 2812 ft | 292 kts | 29° |
| 2026-05-04 20:56 | 39.63296 | -86.50584 | 2812 ft | 292 kts | 29° |
| 2026-05-04 20:56 | 39.64996 | -86.49295 | 2804 ft | 272 kts | 29° |
| 2026-05-04 20:56 | 39.66592 | -86.48083 | 2814 ft | 263 kts | 29° |
| 2026-05-04 20:57 | 39.68161 | -86.46894 | 2824 ft | 260 kts | 30° |
| 2026-05-04 20:57 | 39.69732 | -86.45700 | 2821 ft | 263 kts | 29° |
| 2026-05-04 20:57 | 39.71305 | -86.44505 | 2824 ft | 260 kts | 29° |
| 2026-05-04 20:57 | 39.72865 | -86.43319 | 2829 ft | 262 kts | 29° |
| 2026-05-04 20:58 | 39.74439 | -86.42120 | 2828 ft | 262 kts | 28° |
| 2026-05-04 20:58 | 39.76013 | -86.40921 | 2836 ft | 263 kts | 29° |
| 2026-05-04 20:58 | 39.77588 | -86.39721 | 2792 ft | 262 kts | 30° |
| 2026-05-04 20:58 | 39.79166 | -86.38518 | 2790 ft | 263 kts | 28° |
| 2026-05-04 20:59 | 39.80668 | -86.37177 | 2788 ft | 261 kts | 48° |
| 2026-05-04 20:59 | 39.81639 | -86.35219 | 2805 ft | 256 kts | 75° |
| 2026-05-04 20:59 | 39.82003 | -86.33065 | 2792 ft | 237 kts | 85° |
| 2026-05-04 20:59 | 39.82290 | -86.30949 | 2622 ft | 239 kts | 84° |
| 2026-05-04 21:00 | 39.82583 | -86.28827 | 2270 ft | 238 kts | 85° |
| 2026-05-04 21:00 | 39.82879 | -86.26711 | 1919 ft | 237 kts | 84° |
| 2026-05-04 21:00 | 39.83078 | -86.24631 | 1791 ft | 222 kts | 101° |
| 2026-05-04 21:00 | 39.82629 | -86.22860 | 1802 ft | 196 kts | 131° |
| 2026-05-04 21:01 | 39.81694 | -86.21705 | 1824 ft | 180 kts | 156° |
| 2026-05-04 21:01 | 39.80558 | -86.21230 | 1815 ft | 169 kts | 180° |
| 2026-05-04 21:01 | 39.79409 | -86.21401 | 1800 ft | 161 kts | 200° |
| 2026-05-04 21:01 | 39.78439 | -86.22130 | 1810 ft | 162 kts | 218° |
| 2026-05-04 21:02 | 39.77624 | -86.23155 | 1813 ft | 163 kts | 224° |
| 2026-05-04 21:02 | 39.76814 | -86.24195 | 1808 ft | 163 kts | 224° |
| 2026-05-04 21:02 | 39.76019 | -86.25215 | 1644 ft | 162 kts | 223° |
| 2026-05-04 21:02 | 39.75243 | -86.26266 | 1470 ft | 159 kts | 224° |
| 2026-05-04 21:03 | 39.74478 | -86.27246 | 1219 ft | 151 kts | 222° |
| 2026-05-04 21:03 | 39.73728 | -86.28186 | 1036 ft | 150 kts | 220° |
| 2026-05-04 21:03 | 39.72937 | -86.29182 | 849 ft | 160 kts | 220° |
| 2026-05-04 21:03 | 39.72190 | -86.30144 | 810 ft | 140 kts | 220° |
| 2026-05-04 21:04 | 39.71530 | -86.30957 | 780 ft | 121 kts | 223° |
| 2026-05-04 21:04 | 39.71071 | -86.31523 | 776 ft | 63 kts | 224° |
| 2026-05-04 21:04 | 39.70829 | -86.31833 | 779 ft | 42 kts | 224° |
| 2026-05-04 21:04 | 39.70692 | -86.31946 | 779 ft | 19 kts | 165° |
| 2026-05-04 21:05 | 39.70613 | -86.31847 | 781 ft | 14 kts | 99° |
| 2026-05-04 21:05 | 39.70657 | -86.31757 | 781 ft | 11 kts | 44° |
| 2026-05-04 21:05 | 39.70707 | -86.31694 | 781 ft | 9 kts | 44° |
| 2026-05-04 21:05 | 39.70761 | -86.31628 | 781 ft | 16 kts | 43° |
| 2026-05-04 21:06 | 39.70877 | -86.31486 | 781 ft | 30 kts | 43° |
| 2026-05-04 21:06 | 39.71024 | -86.31295 | 784 ft | 23 kts | 45° |
| 2026-05-04 21:06 | 39.71134 | -86.31152 | 780 ft | 21 kts | 45° |
| 2026-05-04 21:06 | 39.71236 | -86.31023 | 781 ft | 20 kts | 44° |
| 2026-05-04 21:07 | 39.71332 | -86.30900 | 781 ft | 19 kts | 45° |
| 2026-05-04 21:07 | 39.71431 | -86.30775 | 781 ft | 23 kts | 44° |
| 2026-05-04 21:07 | 39.71567 | -86.30601 | 781 ft | 31 kts | 45° |
| 2026-05-04 21:07 | 39.71683 | -86.30452 | 781 ft | 23 kts | 43° |
| 2026-05-04 21:08 | 39.71817 | -86.30282 | 781 ft | 31 kts | 45° |
| 2026-05-04 21:08 | 39.71882 | -86.30149 | 781 ft | 17 kts | 109° |
| 2026-05-04 21:08 | 39.71805 | -86.30007 | 781 ft | 18 kts | 96° |
| 2026-05-04 21:08 | 39.71898 | -86.29862 | 781 ft | 25 kts | 41° |
| 2026-05-04 21:09 | 39.72013 | -86.29730 | 781 ft | 14 kts | 59° |
| 2026-05-04 21:09 | 39.71990 | -86.29627 | 783 ft | 13 kts | 128° |
| 2026-05-04 21:09 | 39.71933 | -86.29537 | 782 ft | 13 kts | 130° |
| 2026-05-04 21:09 | 39.71870 | -86.29447 | 782 ft | 14 kts | 146° |
| 2026-05-04 21:10 | 39.71791 | -86.29487 | 782 ft | 13 kts | 217° |
| 2026-05-04 21:10 | 39.71717 | -86.29564 | 782 ft | 14 kts | 224° |
| 2026-05-04 21:10 | 39.71702 | -86.29600 | 782 ft | 4 kts | 261° |
| 2026-05-04 21:10 | 39.71711 | -86.29627 | 782 ft | 0 kts | 297° |
| 2026-05-04 21:11 | 39.71712 | -86.29634 | 782 ft | 2 kts | 288° |
| 2026-05-04 21:11 | 39.71718 | -86.29657 | 782 ft | 1 kts | 291° |
| 2026-05-04 21:11 | 39.71721 | -86.29665 | 782 ft | 0 kts | 292° |